createdAt,value
2023-03-26T00:01:41.665Z,6.90
2023-03-26T00:04:10.030Z,6.90
2023-03-26T00:06:41.776Z,7.00
2023-03-26T00:09:13.577Z,7.00
2023-03-26T00:11:42.572Z,7.10
2023-03-26T00:14:14.084Z,7.10
2023-03-26T00:16:43.161Z,7.20
2023-03-26T00:19:12.704Z,7.20
2023-03-26T00:21:41.550Z,7.30
2023-03-26T00:24:12.425Z,7.30
2023-03-26T00:26:41.054Z,7.20
2023-03-26T00:29:10.369Z,7.30
2023-03-26T00:31:41.102Z,7.30
2023-03-26T00:34:10.872Z,7.30
2023-03-26T00:36:42.188Z,7.40
2023-03-26T00:39:10.609Z,7.30
2023-03-26T00:41:43.186Z,7.40
2023-03-26T00:44:12.252Z,7.40
2023-03-26T00:46:42.674Z,7.40
2023-03-26T00:49:14.848Z,7.40
2023-03-26T00:51:43.260Z,7.40
2023-03-26T00:54:12.771Z,7.40
2023-03-26T00:56:41.204Z,7.40
2023-03-26T00:59:11.180Z,7.30
2023-03-26T01:01:39.920Z,7.30
2023-03-26T01:04:27.722Z,7.40
2023-03-26T01:06:59.717Z,7.40
2023-03-26T01:09:42.821Z,7.40
2023-03-26T01:12:17.064Z,7.40
2023-03-26T01:14:45.976Z,7.50
2023-03-26T01:17:15.304Z,7.50
2023-03-26T01:19:51.102Z,7.50
2023-03-26T01:22:22.019Z,7.50
2023-03-26T01:24:56.481Z,7.50
2023-03-26T01:27:39.188Z,7.50
2023-03-26T01:30:17.237Z,7.60
2023-03-26T01:33:03.767Z,7.60
2023-03-26T01:35:42.774Z,7.60
2023-03-26T01:38:23.970Z,7.70
2023-03-26T01:41:00.106Z,7.70
2023-03-26T01:43:35.483Z,7.70
2023-03-26T01:46:07.724Z,7.70
2023-03-26T01:48:38.105Z,7.70
2023-03-26T01:51:08.235Z,7.70
2023-03-26T01:53:41.459Z,7.70
2023-03-26T01:56:21.454Z,7.70
2023-03-26T01:59:04.777Z,7.70
2023-03-26T02:01:44.900Z,7.70
2023-03-26T02:04:23.197Z,7.70
2023-03-26T02:06:58.706Z,7.60
2023-03-26T02:09:32.209Z,7.60
2023-03-26T02:12:03.810Z,7.60
2023-03-26T02:14:32.421Z,7.70
2023-03-26T02:17:01.023Z,7.70
2023-03-26T02:19:29.973Z,7.60
2023-03-26T02:22:00.044Z,7.60
2023-03-26T02:24:30.766Z,7.60
2023-03-26T02:27:02.393Z,7.60
2023-03-26T02:29:31.089Z,7.60
2023-03-26T02:31:59.864Z,7.60
2023-03-26T02:34:28.432Z,7.60
2023-03-26T02:36:57.419Z,7.60
2023-03-26T02:39:27.762Z,7.60
2023-03-26T02:42:01.448Z,7.60
2023-03-26T02:44:31.241Z,7.60
2023-03-26T02:46:59.565Z,7.60
2023-03-26T02:49:47.892Z,7.50
2023-03-26T02:52:24.102Z,7.60
2023-03-26T02:54:54.638Z,7.60
2023-03-26T02:57:26.815Z,7.60
2023-03-26T03:00:17.353Z,7.60
2023-03-26T03:03:06.829Z,7.60
2023-03-26T03:05:38.052Z,7.50
2023-03-26T03:08:46.212Z,7.50
2023-03-26T03:11:32.995Z,7.50
2023-03-26T03:14:03.077Z,7.50
2023-03-26T03:16:33.107Z,7.50
2023-03-26T03:19:08.095Z,7.50
2023-03-26T03:21:41.390Z,7.50
2023-03-26T03:24:11.686Z,7.50
2023-03-26T03:26:47.725Z,7.50
2023-03-26T03:29:37.862Z,7.50
2023-03-26T03:32:31.972Z,7.50
2023-03-26T03:35:04.115Z,7.50
2023-03-26T03:37:33.096Z,7.50
2023-03-26T03:40:01.839Z,7.60
2023-03-26T03:42:33.717Z,7.50
2023-03-26T03:45:06.729Z,7.50
2023-03-26T03:47:59.619Z,7.50
2023-03-26T03:50:35.963Z,7.50
2023-03-26T03:53:30.690Z,7.50
2023-03-26T03:56:02.167Z,7.40
2023-03-26T03:58:53.391Z,7.50
2023-03-26T04:01:33.094Z,7.40
2023-03-26T04:04:07.053Z,7.40
2023-03-26T04:06:53.321Z,7.40
2023-03-26T04:09:22.256Z,7.40
2023-03-26T04:11:51.976Z,7.40
2023-03-26T04:14:33.471Z,7.40
2023-03-26T04:17:06.821Z,7.30
2023-03-26T04:19:38.511Z,7.30
2023-03-26T04:22:12.031Z,7.30
2023-03-26T04:24:54.455Z,7.30
2023-03-26T04:27:35.425Z,7.30
2023-03-26T04:30:21.372Z,7.20
2023-03-26T04:32:58.803Z,7.10
2023-03-26T04:35:30.475Z,7.10
2023-03-26T04:37:59.173Z,7.10
2023-03-26T04:40:34.688Z,7.10
2023-03-26T04:43:30.424Z,7.10
2023-03-26T04:46:33.610Z,7.00
2023-03-26T04:49:15.623Z,7.00
2023-03-26T04:51:46.315Z,6.90
2023-03-26T04:54:37.448Z,6.90
2023-03-26T04:57:16.945Z,6.90
2023-03-26T04:59:50.166Z,6.90
2023-03-26T05:02:20.291Z,6.80
2023-03-26T05:04:53.884Z,6.80
2023-03-26T05:07:24.267Z,6.70
2023-03-26T05:09:58.301Z,6.70
2023-03-26T05:12:52.749Z,6.70
2023-03-26T05:15:25.158Z,6.70
2023-03-26T05:17:55.544Z,6.60
2023-03-26T05:20:32.557Z,6.60
2023-03-26T05:23:01.263Z,6.50
2023-03-26T05:25:35.900Z,6.50
2023-03-26T05:28:07.200Z,6.50
2023-03-26T05:31:01.279Z,6.50
2023-03-26T05:33:33.605Z,6.50
2023-03-26T05:36:15.409Z,6.40
2023-03-26T05:38:52.501Z,6.40
2023-03-26T05:41:40.953Z,6.40
2023-03-26T05:44:09.693Z,6.40
2023-03-26T05:46:38.968Z,6.50
2023-03-26T05:49:07.885Z,6.50
2023-03-26T05:51:38.699Z,6.50
2023-03-26T05:54:25.592Z,6.60
2023-03-26T05:57:17.440Z,6.60
2023-03-26T06:00:16.035Z,6.70
2023-03-26T06:02:48.173Z,6.70
2023-03-26T06:05:37.443Z,6.80
2023-03-26T06:08:33.969Z,6.80
2023-03-26T06:11:03.778Z,6.90
2023-03-26T06:13:36.594Z,6.90
2023-03-26T06:16:05.040Z,7.00
2023-03-26T06:18:36.537Z,7.00
2023-03-26T06:21:13.748Z,7.10
2023-03-26T06:23:55.403Z,7.20
2023-03-26T06:26:43.252Z,7.30
2023-03-26T06:29:36.065Z,7.40
2023-03-26T06:32:20.181Z,7.50
2023-03-26T06:34:55.210Z,7.60
2023-03-26T06:37:23.702Z,7.60
2023-03-26T06:39:59.139Z,7.70
2023-03-26T06:43:06.841Z,7.80
2023-03-26T06:45:53.169Z,7.90
2023-03-26T06:48:33.508Z,8.00
2023-03-26T06:51:28.111Z,8.10
2023-03-26T06:54:16.761Z,8.20
2023-03-26T06:56:46.657Z,8.30
2023-03-26T06:59:37.905Z,8.30
2023-03-26T07:02:24.852Z,8.50
2023-03-26T07:05:12.031Z,8.50
2023-03-26T07:07:59.053Z,8.70
2023-03-26T07:10:56.809Z,8.80
2023-03-26T07:13:47.606Z,8.90
2023-03-26T07:16:34.633Z,9.00
2023-03-26T07:19:21.696Z,9.10
2023-03-26T07:21:51.125Z,9.20
2023-03-26T07:24:37.317Z,9.30
2023-03-26T07:27:22.458Z,9.30
2023-03-26T07:30:00.080Z,9.40
2023-03-26T07:32:48.720Z,9.40
2023-03-26T07:35:46.262Z,9.50
2023-03-26T07:38:48.608Z,9.50
2023-03-26T07:41:45.394Z,9.60
2023-03-26T07:44:45.471Z,9.70
2023-03-26T07:47:26.165Z,9.80
2023-03-26T07:50:27.530Z,10.00
2023-03-26T07:53:02.244Z,10.10
2023-03-26T07:55:54.372Z,10.20
2023-03-26T07:59:08.116Z,10.20
2023-03-26T08:02:20.020Z,10.40
2023-03-26T08:05:18.981Z,10.50
2023-03-26T08:08:16.684Z,10.60
2023-03-26T08:11:11.456Z,10.80
2023-03-26T08:13:59.456Z,10.90
2023-03-26T08:16:35.677Z,10.90
2023-03-26T08:19:17.012Z,11.00
2023-03-26T08:21:51.092Z,11.10
2023-03-26T08:24:23.924Z,11.20
2023-03-26T08:27:00.212Z,11.30
2023-03-26T08:29:38.342Z,11.40
2023-03-26T08:32:10.833Z,11.40
2023-03-26T08:34:39.132Z,11.40
2023-03-26T08:37:09.856Z,11.50
2023-03-26T08:39:38.880Z,11.50
2023-03-26T08:42:43.700Z,11.50
2023-03-26T08:45:53.774Z,11.60
2023-03-26T08:48:44.684Z,11.60
2023-03-26T08:51:53.108Z,11.60
2023-03-26T08:55:24.724Z,11.70
2023-03-26T08:58:23.941Z,11.80
2023-03-26T09:01:27.722Z,11.90
2023-03-26T09:04:20.460Z,11.70
2023-03-26T09:07:38.376Z,11.70
2023-03-26T09:10:42.971Z,11.80
2023-03-26T09:14:04.209Z,11.70
2023-03-26T09:17:02.621Z,11.60
2023-03-26T09:20:08.876Z,11.60
2023-03-26T09:22:57.578Z,11.50
2023-03-26T09:25:57.680Z,11.40
2023-03-26T09:29:01.497Z,11.40
2023-03-26T09:31:46.532Z,11.40
2023-03-26T09:34:30.015Z,11.40
2023-03-26T09:37:14.944Z,11.50
2023-03-26T09:39:58.041Z,11.60
2023-03-26T09:42:38.657Z,11.60
2023-03-26T09:45:42.622Z,11.60
2023-03-26T09:48:57.293Z,11.70
2023-03-26T09:51:54.113Z,11.70
2023-03-26T09:54:44.568Z,11.70
2023-03-26T09:57:26.776Z,11.70
2023-03-26T10:00:10.066Z,11.60
2023-03-26T10:02:53.748Z,11.60
2023-03-26T10:05:41.646Z,11.60
2023-03-26T10:08:35.296Z,11.70
2023-03-26T10:11:12.365Z,11.70
2023-03-26T10:13:53.080Z,11.70
2023-03-26T10:16:33.041Z,11.60
2023-03-26T10:19:17.120Z,11.50
2023-03-26T10:21:52.442Z,11.40
2023-03-26T10:24:35.027Z,11.40
2023-03-26T10:27:15.655Z,11.40
2023-03-26T10:30:22.671Z,11.30
2023-03-26T10:33:03.707Z,11.30
2023-03-26T10:35:45.666Z,11.20
2023-03-26T10:38:19.488Z,11.20
2023-03-26T10:40:59.853Z,11.00
2023-03-26T10:44:08.708Z,10.90
2023-03-26T10:47:26.451Z,10.90
2023-03-26T10:50:27.353Z,10.70
2023-03-26T10:53:02.251Z,10.60
2023-03-26T10:55:35.481Z,10.50
2023-03-26T10:58:11.481Z,10.30
2023-03-26T11:00:44.116Z,10.30
2023-03-26T11:03:44.834Z,10.10
2023-03-26T11:06:26.519Z,10.10
2023-03-26T11:08:59.833Z,10.10
2023-03-26T11:11:34.344Z,9.90
2023-03-26T11:14:09.902Z,9.90
2023-03-26T11:16:50.232Z,9.90
2023-03-26T11:19:24.683Z,9.90
2023-03-26T11:22:02.298Z,9.80
2023-03-26T11:24:47.964Z,9.70
2023-03-26T11:27:27.786Z,9.70
2023-03-26T11:30:07.738Z,9.60
2023-03-26T11:32:43.409Z,9.60
2023-03-26T11:35:39.488Z,9.70
2023-03-26T11:38:17.740Z,9.80
2023-03-26T11:40:51.029Z,9.80
2023-03-26T11:43:38.858Z,9.80
2023-03-26T11:46:12.734Z,9.70
2023-03-26T11:48:44.446Z,9.70
2023-03-26T11:51:17.590Z,9.80
2023-03-26T11:53:47.620Z,9.80
2023-03-26T11:56:25.240Z,9.90
2023-03-26T11:59:01.133Z,10.00
2023-03-26T12:01:44.355Z,10.00
2023-03-26T12:04:15.407Z,9.90
2023-03-26T12:06:53.588Z,9.90
2023-03-26T12:09:24.686Z,9.90
2023-03-26T12:11:57.523Z,9.90
2023-03-26T12:14:28.432Z,10.00
2023-03-26T12:17:01.846Z,10.00
2023-03-26T12:19:37.019Z,10.10
2023-03-26T12:22:05.423Z,10.10
2023-03-26T12:24:36.662Z,10.10
2023-03-26T12:27:25.177Z,10.10
2023-03-26T12:29:55.113Z,10.20
2023-03-26T12:32:29.669Z,10.20
2023-03-26T12:35:08.913Z,10.10
2023-03-26T12:37:39.024Z,10.20
2023-03-26T12:40:27.296Z,10.20
2023-03-26T12:44:49.204Z,10.20
2023-03-26T12:47:46.246Z,10.20
2023-03-26T12:48:38.217Z,10.20
2023-03-26T12:51:15.284Z,10.20
2023-03-26T12:54:09.840Z,10.30
2023-03-26T12:56:47.676Z,10.50
2023-03-26T12:59:27.830Z,10.60
2023-03-26T13:02:10.344Z,10.70
2023-03-26T13:05:06.187Z,10.70
2023-03-26T13:07:59.884Z,10.70
2023-03-26T13:10:39.522Z,10.70
2023-03-26T13:13:56.194Z,10.80
2023-03-26T13:16:35.563Z,10.90
2023-03-26T13:19:09.612Z,11.10
2023-03-26T13:21:51.726Z,11.20
2023-03-26T13:24:31.332Z,11.30
2023-03-26T13:27:11.975Z,11.40
2023-03-26T13:29:56.721Z,11.50
2023-03-26T13:32:37.289Z,11.50
2023-03-26T13:35:24.590Z,11.60
2023-03-26T13:38:01.110Z,11.70
2023-03-26T13:40:39.045Z,11.70
2023-03-26T13:43:37.197Z,11.70
2023-03-26T13:46:14.882Z,11.70
2023-03-26T13:48:50.135Z,11.70
2023-03-26T13:51:22.765Z,11.60
2023-03-26T13:53:56.675Z,11.60
2023-03-26T13:56:32.651Z,11.40
2023-03-26T13:59:07.701Z,11.30
2023-03-26T14:01:43.820Z,11.10
2023-03-26T14:04:21.429Z,11.00
2023-03-26T14:06:57.230Z,10.80
2023-03-26T14:09:33.267Z,10.80
2023-03-26T14:12:30.366Z,10.70
2023-03-26T14:15:01.968Z,10.60
2023-03-26T14:17:39.734Z,10.50
2023-03-26T14:20:42.830Z,10.50
2023-03-26T14:23:36.207Z,10.60
2023-03-26T14:26:16.714Z,10.60
2023-03-26T14:29:08.857Z,10.60
2023-03-26T14:31:44.126Z,10.70
2023-03-26T14:34:38.356Z,10.70
2023-03-26T14:37:31.366Z,10.70
2023-03-26T14:40:17.448Z,10.70
2023-03-26T14:42:56.679Z,10.70
2023-03-26T14:45:52.508Z,10.70
2023-03-26T14:48:49.070Z,10.70
2023-03-26T14:51:33.270Z,10.80
2023-03-26T14:54:06.903Z,10.80
2023-03-26T14:56:48.437Z,10.80
2023-03-26T14:59:42.240Z,10.80
2023-03-26T15:03:03.090Z,10.90
2023-03-26T15:06:25.352Z,10.90
2023-03-26T15:09:42.857Z,10.90
2023-03-26T15:12:22.269Z,10.90
2023-03-26T15:15:36.464Z,10.90
2023-03-26T15:18:34.019Z,11.00
2023-03-26T15:21:38.916Z,11.00
2023-03-26T15:24:40.493Z,11.00
2023-03-26T15:27:25.520Z,11.00
2023-03-26T15:30:28.369Z,11.00
2023-03-26T15:33:36.463Z,11.00
2023-03-26T15:36:30.295Z,10.90
2023-03-26T15:39:59.652Z,10.90
2023-03-26T15:42:45.693Z,11.00
2023-03-26T15:45:33.404Z,10.90
2023-03-26T15:48:32.129Z,10.90
2023-03-26T15:51:10.076Z,10.90
2023-03-26T15:53:44.910Z,10.80
2023-03-26T15:56:33.364Z,10.70
2023-03-26T15:59:11.946Z,10.70
2023-03-26T16:01:51.843Z,10.60
2023-03-26T16:04:30.511Z,10.50
2023-03-26T16:07:09.464Z,10.40
2023-03-26T16:09:54.481Z,10.40
2023-03-26T16:12:31.031Z,10.40
2023-03-26T16:15:29.654Z,10.30
2023-03-26T16:18:32.560Z,10.30
2023-03-26T16:21:31.318Z,10.30
2023-03-26T16:24:25.047Z,10.40
2023-03-26T16:27:16.716Z,10.40
2023-03-26T16:30:09.575Z,10.40
2023-03-26T16:32:43.379Z,10.40
2023-03-26T16:35:41.626Z,10.50
2023-03-26T16:38:16.151Z,10.40
2023-03-26T16:41:00.387Z,10.30
2023-03-26T16:43:56.428Z,10.30
2023-03-26T16:46:34.992Z,10.20
2023-03-26T16:49:16.890Z,10.10
2023-03-26T16:51:59.458Z,10.00
2023-03-26T16:54:37.952Z,10.00
2023-03-26T16:57:23.561Z,10.00
2023-03-26T17:00:07.650Z,9.90
2023-03-26T17:02:49.215Z,9.80
2023-03-26T17:05:25.770Z,9.80
2023-03-26T17:08:03.338Z,9.80
2023-03-26T17:10:36.808Z,9.90
2023-03-26T17:13:10.973Z,10.00
2023-03-26T17:15:47.263Z,10.00
2023-03-26T17:18:31.514Z,10.00
2023-03-26T17:21:05.572Z,10.00
2023-03-26T17:23:51.786Z,10.00
2023-03-26T17:26:29.155Z,9.90
2023-03-26T17:29:18.792Z,9.80
2023-03-26T17:31:54.459Z,9.70
2023-03-26T17:34:53.274Z,9.60
2023-03-26T17:37:43.516Z,9.50
2023-03-26T17:40:46.490Z,9.50
2023-03-26T17:43:46.415Z,9.40
2023-03-26T17:46:26.628Z,9.30
2023-03-26T17:49:00.756Z,9.20
2023-03-26T17:51:40.260Z,9.10
2023-03-26T17:54:17.588Z,9.00
2023-03-26T17:56:47.910Z,8.90
2023-03-26T17:59:23.477Z,8.80
2023-03-26T18:01:55.883Z,8.80
2023-03-26T18:04:31.318Z,8.60
2023-03-26T18:07:37.451Z,8.60
2023-03-26T18:10:24.557Z,8.60
2023-03-26T18:13:09.905Z,8.50
2023-03-26T18:16:03.050Z,8.50
2023-03-26T18:18:34.604Z,8.40
2023-03-26T18:21:07.218Z,8.40
2023-03-26T18:23:38.952Z,8.30
2023-03-26T18:26:14.033Z,8.30
2023-03-26T18:28:43.950Z,8.20
2023-03-26T18:31:19.876Z,8.30
2023-03-26T18:33:50.984Z,8.30
2023-03-26T18:36:19.682Z,8.30
2023-03-26T18:38:48.967Z,8.20
2023-03-26T18:41:30.528Z,8.10
2023-03-26T18:44:03.444Z,8.10
2023-03-26T18:46:33.672Z,8.10
2023-03-26T18:49:03.041Z,8.10
2023-03-26T18:51:36.465Z,8.00
2023-03-26T18:54:11.013Z,8.00
2023-03-26T18:56:41.840Z,8.00
2023-03-26T18:59:23.172Z,7.90
2023-03-26T19:01:53.172Z,7.90
2023-03-26T19:04:21.758Z,7.90
2023-03-26T19:06:53.865Z,7.80
2023-03-26T19:09:31.591Z,7.80
2023-03-26T19:12:06.803Z,7.70
2023-03-26T19:14:51.421Z,7.70
2023-03-26T19:17:21.613Z,7.80
2023-03-26T19:19:51.135Z,7.80
2023-03-26T19:22:22.443Z,7.80
2023-03-26T19:24:55.949Z,7.80
2023-03-26T19:27:24.671Z,7.80
2023-03-26T19:29:52.973Z,7.80
2023-03-26T19:32:32.420Z,7.80
2023-03-26T19:35:02.245Z,7.80
2023-03-26T19:37:32.651Z,7.80
2023-03-26T19:40:14.463Z,7.80
2023-03-26T19:42:45.338Z,7.80
2023-03-26T19:45:18.955Z,7.80
2023-03-26T19:47:59.976Z,7.80
2023-03-26T19:50:37.022Z,7.90
2023-03-26T19:53:16.815Z,7.90
2023-03-26T19:55:54.453Z,8.00
2023-03-26T19:58:22.689Z,7.90
2023-03-26T20:00:50.958Z,8.00
2023-03-26T20:03:24.961Z,8.00
2023-03-26T20:05:53.224Z,8.00
2023-03-26T20:08:27.339Z,8.00
2023-03-26T20:10:57.038Z,8.00
2023-03-26T20:13:25.262Z,8.10
2023-03-26T20:16:05.836Z,8.10
2023-03-26T20:18:37.673Z,8.00
2023-03-26T20:21:10.907Z,8.00
2023-03-26T20:23:39.173Z,7.90
2023-03-26T20:26:11.076Z,7.90
2023-03-26T20:28:47.793Z,7.90
2023-03-26T20:31:22.019Z,7.80
2023-03-26T20:33:52.443Z,7.80
2023-03-26T20:36:33.256Z,7.80
2023-03-26T20:39:05.626Z,7.70
2023-03-26T20:41:35.455Z,7.60
2023-03-26T20:44:05.932Z,7.50
2023-03-26T20:46:34.243Z,7.50
2023-03-26T20:49:03.819Z,7.40
2023-03-26T20:51:32.332Z,7.20
2023-03-26T20:54:00.822Z,7.00
2023-03-26T20:56:29.384Z,7.00
2023-03-26T20:59:09.738Z,7.00
2023-03-26T21:01:38.852Z,6.90
2023-03-26T21:04:08.608Z,6.90
2023-03-26T21:06:37.435Z,6.90
2023-03-26T21:09:06.274Z,6.80
2023-03-26T21:11:46.415Z,6.70
2023-03-26T21:14:21.824Z,6.70
2023-03-26T21:16:50.703Z,6.60
2023-03-26T21:19:21.523Z,6.60
2023-03-26T21:21:59.077Z,6.60
2023-03-26T21:24:42.014Z,6.60
2023-03-26T21:27:19.371Z,6.60
2023-03-26T21:29:48.073Z,6.60
2023-03-26T21:32:16.794Z,6.60
2023-03-26T21:34:57.571Z,6.60
2023-03-26T21:37:28.522Z,6.50
2023-03-26T21:39:57.212Z,6.50
2023-03-26T21:42:26.996Z,6.50
2023-03-26T21:44:56.095Z,6.40
2023-03-26T21:47:24.621Z,6.40
2023-03-26T21:49:54.867Z,6.40
2023-03-26T21:52:23.997Z,6.40
2023-03-26T21:54:52.958Z,6.40
2023-03-26T21:57:38.203Z,6.40
2023-03-26T22:00:15.568Z,6.40
2023-03-26T22:02:55.586Z,6.40
2023-03-26T22:05:31.142Z,6.40
2023-03-26T22:08:02.970Z,6.40
2023-03-26T22:10:32.962Z,6.40
2023-03-26T22:13:01.226Z,6.40
2023-03-26T22:15:31.283Z,6.40
2023-03-26T22:18:02.456Z,6.40
2023-03-26T22:20:32.260Z,6.40
2023-03-26T22:23:01.810Z,6.40
2023-03-26T22:25:30.286Z,6.40
2023-03-26T22:27:58.529Z,6.40
2023-03-26T22:30:27.296Z,6.40
2023-03-26T22:32:55.697Z,6.40
2023-03-26T22:35:24.232Z,6.40
2023-03-26T22:38:00.910Z,6.30
2023-03-26T22:40:29.585Z,6.40
2023-03-26T22:42:57.674Z,6.40
2023-03-26T22:45:26.100Z,6.30
2023-03-26T22:48:03.405Z,6.40
2023-03-26T22:50:32.630Z,6.30
2023-03-26T22:53:02.170Z,6.30
2023-03-26T22:55:30.296Z,6.40
2023-03-26T22:57:58.405Z,6.40
2023-03-26T23:00:26.890Z,6.40
2023-03-26T23:02:55.727Z,6.40
2023-03-26T23:05:24.558Z,6.40
2023-03-26T23:07:53.262Z,6.40
2023-03-26T23:10:22.938Z,6.40
2023-03-26T23:12:51.145Z,6.40
2023-03-26T23:15:20.773Z,6.40
2023-03-26T23:17:54.520Z,6.40
2023-03-26T23:20:23.072Z,6.40
2023-03-26T23:22:53.013Z,6.40
2023-03-26T23:25:22.440Z,6.40
2023-03-26T23:27:50.974Z,6.40
2023-03-26T23:30:19.370Z,6.40
2023-03-26T23:32:47.591Z,6.30
2023-03-26T23:35:15.958Z,6.30
2023-03-26T23:37:44.037Z,6.30
2023-03-26T23:40:13.327Z,6.30
2023-03-26T23:42:42.795Z,6.30
2023-03-26T23:45:12.367Z,6.30
2023-03-26T23:47:42.523Z,6.20
2023-03-26T23:50:11.663Z,6.30
2023-03-26T23:52:39.849Z,6.30
2023-03-26T23:55:08.461Z,6.30
2023-03-26T23:57:37.061Z,6.30
